sensor_id;sensor_type;location;lat;lon;timestamp;P1;durP1;ratioP1;P2;durP2;ratioP2
3133;SDS011;1577;49.912;10.924;2023-07-20T00:01:57;11.90;;;2.70;;
3133;SDS011;1577;49.912;10.924;2023-07-20T00:04:22;13.57;;;3.00;;
3133;SDS011;1577;49.912;10.924;2023-07-20T00:06:48;13.40;;;3.03;;
3133;SDS011;1577;49.912;10.924;2023-07-20T00:09:14;11.70;;;2.80;;
3133;SDS011;1577;49.912;10.924;2023-07-20T00:11:39;15.67;;;3.20;;
3133;SDS011;1577;49.912;10.924;2023-07-20T00:14:05;12.83;;;3.10;;
3133;SDS011;1577;49.912;10.924;2023-07-20T00:16:31;11.00;;;2.53;;
3133;SDS011;1577;49.912;10.924;2023-07-20T00:18:57;11.97;;;2.53;;
3133;SDS011;1577;49.912;10.924;2023-07-20T00:21:22;12.00;;;3.10;;
3133;SDS011;1577;49.912;10.924;2023-07-20T00:23:48;13.30;;;3.47;;
3133;SDS011;1577;49.912;10.924;2023-07-20T00:26:14;13.47;;;2.70;;
3133;SDS011;1577;49.912;10.924;2023-07-20T00:28:40;12.77;;;3.07;;
3133;SDS011;1577;49.912;10.924;2023-07-20T00:31:06;13.13;;;3.07;;
3133;SDS011;1577;49.912;10.924;2023-07-20T00:33:31;12.17;;;3.17;;
3133;SDS011;1577;49.912;10.924;2023-07-20T00:35:57;12.80;;;2.83;;
3133;SDS011;1577;49.912;10.924;2023-07-20T00:38:23;13.63;;;3.40;;
3133;SDS011;1577;49.912;10.924;2023-07-20T00:40:48;14.33;;;3.33;;
3133;SDS011;1577;49.912;10.924;2023-07-20T00:43:14;13.80;;;3.27;;
3133;SDS011;1577;49.912;10.924;2023-07-20T00:45:40;12.80;;;2.97;;
3133;SDS011;1577;49.912;10.924;2023-07-20T00:48:06;14.97;;;3.33;;
3133;SDS011;1577;49.912;10.924;2023-07-20T00:50:32;11.97;;;3.17;;
3133;SDS011;1577;49.912;10.924;2023-07-20T00:52:59;12.90;;;2.80;;
3133;SDS011;1577;49.912;10.924;2023-07-20T00:55:25;12.67;;;3.30;;
3133;SDS011;1577;49.912;10.924;2023-07-20T00:57:52;13.20;;;3.37;;
3133;SDS011;1577;49.912;10.924;2023-07-20T01:00:18;12.30;;;3.37;;
3133;SDS011;1577;49.912;10.924;2023-07-20T01:02:44;11.70;;;3.10;;
3133;SDS011;1577;49.912;10.924;2023-07-20T01:05:10;12.30;;;3.50;;
3133;SDS011;1577;49.912;10.924;2023-07-20T01:07:46;16.50;;;4.20;;
3133;SDS011;1577;49.912;10.924;2023-07-20T01:10:29;12.50;;;2.90;;
3133;SDS011;1577;49.912;10.924;2023-07-20T01:13:01;11.20;;;2.90;;
3133;SDS011;1577;49.912;10.924;2023-07-20T01:15:27;17.13;;;3.60;;
3133;SDS011;1577;49.912;10.924;2023-07-20T01:17:53;12.87;;;3.30;;
3133;SDS011;1577;49.912;10.924;2023-07-20T01:20:19;11.97;;;3.10;;
3133;SDS011;1577;49.912;10.924;2023-07-20T01:33:57;13.00;;;3.23;;
3133;SDS011;1577;49.912;10.924;2023-07-20T01:36:24;12.43;;;3.10;;
3133;SDS011;1577;49.912;10.924;2023-07-20T01:38:52;12.47;;;2.73;;
3133;SDS011;1577;49.912;10.924;2023-07-20T01:41:19;13.60;;;3.47;;
3133;SDS011;1577;49.912;10.924;2023-07-20T01:43:45;12.70;;;3.47;;
3133;SDS011;1577;49.912;10.924;2023-07-20T01:46:11;13.17;;;3.30;;
3133;SDS011;1577;49.912;10.924;2023-07-20T01:48:36;12.40;;;4.00;;
3133;SDS011;1577;49.912;10.924;2023-07-20T01:51:02;12.50;;;3.27;;
3133;SDS011;1577;49.912;10.924;2023-07-20T01:53:28;13.20;;;3.40;;
3133;SDS011;1577;49.912;10.924;2023-07-20T01:55:53;12.70;;;3.27;;
3133;SDS011;1577;49.912;10.924;2023-07-20T01:58:19;11.80;;;2.80;;
3133;SDS011;1577;49.912;10.924;2023-07-20T02:00:45;12.17;;;3.87;;
3133;SDS011;1577;49.912;10.924;2023-07-20T02:03:11;14.27;;;4.23;;
3133;SDS011;1577;49.912;10.924;2023-07-20T02:05:39;14.33;;;3.27;;
3133;SDS011;1577;49.912;10.924;2023-07-20T02:08:07;11.77;;;3.33;;
3133;SDS011;1577;49.912;10.924;2023-07-20T02:10:33;14.00;;;4.30;;
3133;SDS011;1577;49.912;10.924;2023-07-20T02:12:59;12.90;;;3.80;;
3133;SDS011;1577;49.912;10.924;2023-07-20T02:15:24;12.10;;;3.20;;
3133;SDS011;1577;49.912;10.924;2023-07-20T02:17:50;13.27;;;3.50;;
3133;SDS011;1577;49.912;10.924;2023-07-20T02:20:15;12.33;;;3.50;;
3133;SDS011;1577;49.912;10.924;2023-07-20T02:22:42;12.70;;;3.40;;
3133;SDS011;1577;49.912;10.924;2023-07-20T02:25:07;13.10;;;3.80;;
3133;SDS011;1577;49.912;10.924;2023-07-20T02:27:34;14.67;;;3.60;;
3133;SDS011;1577;49.912;10.924;2023-07-20T02:29:59;15.07;;;2.90;;
3133;SDS011;1577;49.912;10.924;2023-07-20T02:32:25;15.30;;;3.60;;
3133;SDS011;1577;49.912;10.924;2023-07-20T02:34:51;12.50;;;3.73;;
3133;SDS011;1577;49.912;10.924;2023-07-20T02:37:16;12.00;;;3.53;;
3133;SDS011;1577;49.912;10.924;2023-07-20T02:39:42;13.20;;;4.00;;
3133;SDS011;1577;49.912;10.924;2023-07-20T02:42:08;11.93;;;3.43;;
3133;SDS011;1577;49.912;10.924;2023-07-20T02:44:33;13.10;;;3.23;;
3133;SDS011;1577;49.912;10.924;2023-07-20T02:46:59;12.90;;;3.50;;
3133;SDS011;1577;49.912;10.924;2023-07-20T02:49:24;13.13;;;3.93;;
3133;SDS011;1577;49.912;10.924;2023-07-20T02:51:50;13.00;;;3.50;;
3133;SDS011;1577;49.912;10.924;2023-07-20T02:54:16;16.23;;;3.80;;
3133;SDS011;1577;49.912;10.924;2023-07-20T02:56:41;13.10;;;4.20;;
3133;SDS011;1577;49.912;10.924;2023-07-20T02:59:07;14.23;;;4.00;;
3133;SDS011;1577;49.912;10.924;2023-07-20T03:01:33;12.50;;;3.70;;
3133;SDS011;1577;49.912;10.924;2023-07-20T03:03:58;16.00;;;3.77;;
3133;SDS011;1577;49.912;10.924;2023-07-20T03:06:24;12.87;;;3.93;;
3133;SDS011;1577;49.912;10.924;2023-07-20T03:08:50;16.47;;;4.50;;
3133;SDS011;1577;49.912;10.924;2023-07-20T03:11:17;15.00;;;4.63;;
3133;SDS011;1577;49.912;10.924;2023-07-20T03:13:44;14.60;;;4.27;;
3133;SDS011;1577;49.912;10.924;2023-07-20T03:16:10;15.30;;;3.80;;
3133;SDS011;1577;49.912;10.924;2023-07-20T03:18:37;15.73;;;4.00;;
3133;SDS011;1577;49.912;10.924;2023-07-20T03:21:04;13.23;;;3.70;;
3133;SDS011;1577;49.912;10.924;2023-07-20T03:23:30;13.20;;;3.70;;
3133;SDS011;1577;49.912;10.924;2023-07-20T03:25:57;14.83;;;4.47;;
3133;SDS011;1577;49.912;10.924;2023-07-20T03:28:22;15.13;;;4.20;;
3133;SDS011;1577;49.912;10.924;2023-07-20T03:30:57;14.87;;;3.80;;
3133;SDS011;1577;49.912;10.924;2023-07-20T03:33:25;17.80;;;4.37;;
3133;SDS011;1577;49.912;10.924;2023-07-20T03:35:51;13.30;;;3.70;;
3133;SDS011;1577;49.912;10.924;2023-07-20T03:38:17;13.60;;;4.07;;
3133;SDS011;1577;49.912;10.924;2023-07-20T03:40:53;12.87;;;4.00;;
3133;SDS011;1577;49.912;10.924;2023-07-20T03:43:20;12.60;;;3.80;;
3133;SDS011;1577;49.912;10.924;2023-07-20T03:45:47;14.13;;;4.10;;
3133;SDS011;1577;49.912;10.924;2023-07-20T03:48:13;13.53;;;4.17;;
3133;SDS011;1577;49.912;10.924;2023-07-20T03:50:45;14.87;;;4.53;;
3133;SDS011;1577;49.912;10.924;2023-07-20T03:53:12;16.40;;;4.93;;
3133;SDS011;1577;49.912;10.924;2023-07-20T03:55:38;14.10;;;4.43;;
3133;SDS011;1577;49.912;10.924;2023-07-20T03:58:05;13.30;;;3.97;;
3133;SDS011;1577;49.912;10.924;2023-07-20T04:00:31;15.43;;;4.37;;
3133;SDS011;1577;49.912;10.924;2023-07-20T04:02:57;16.80;;;4.50;;
3133;SDS011;1577;49.912;10.924;2023-07-20T04:05:22;13.80;;;4.20;;
3133;SDS011;1577;49.912;10.924;2023-07-20T04:07:48;13.50;;;4.20;;
3133;SDS011;1577;49.912;10.924;2023-07-20T04:10:13;16.00;;;4.70;;
3133;SDS011;1577;49.912;10.924;2023-07-20T04:12:39;13.03;;;3.97;;
3133;SDS011;1577;49.912;10.924;2023-07-20T04:15:05;15.33;;;4.50;;
3133;SDS011;1577;49.912;10.924;2023-07-20T04:17:31;14.20;;;4.20;;
3133;SDS011;1577;49.912;10.924;2023-07-20T04:19:56;13.70;;;3.80;;
3133;SDS011;1577;49.912;10.924;2023-07-20T04:22:22;13.30;;;4.30;;
3133;SDS011;1577;49.912;10.924;2023-07-20T04:24:47;15.43;;;4.40;;
3133;SDS011;1577;49.912;10.924;2023-07-20T04:27:13;13.60;;;4.10;;
3133;SDS011;1577;49.912;10.924;2023-07-20T04:29:39;14.50;;;4.53;;
3133;SDS011;1577;49.912;10.924;2023-07-20T04:32:04;13.57;;;4.40;;
3133;SDS011;1577;49.912;10.924;2023-07-20T04:34:30;15.53;;;4.40;;
3133;SDS011;1577;49.912;10.924;2023-07-20T04:36:56;13.00;;;4.10;;
3133;SDS011;1577;49.912;10.924;2023-07-20T04:39:21;14.37;;;4.13;;
3133;SDS011;1577;49.912;10.924;2023-07-20T04:41:47;13.80;;;4.17;;
3133;SDS011;1577;49.912;10.924;2023-07-20T04:44:13;14.90;;;4.43;;
3133;SDS011;1577;49.912;10.924;2023-07-20T04:46:39;20.60;;;4.60;;
3133;SDS011;1577;49.912;10.924;2023-07-20T04:49:05;13.77;;;4.07;;
3133;SDS011;1577;49.912;10.924;2023-07-20T04:51:31;12.87;;;4.30;;
3133;SDS011;1577;49.912;10.924;2023-07-20T04:53:56;15.77;;;4.30;;
3133;SDS011;1577;49.912;10.924;2023-07-20T04:56:22;14.10;;;3.97;;
3133;SDS011;1577;49.912;10.924;2023-07-20T04:58:48;13.93;;;4.03;;
3133;SDS011;1577;49.912;10.924;2023-07-20T05:01:14;13.20;;;3.60;;
3133;SDS011;1577;49.912;10.924;2023-07-20T05:03:39;18.03;;;4.50;;
3133;SDS011;1577;49.912;10.924;2023-07-20T05:06:05;15.13;;;4.10;;
3133;SDS011;1577;49.912;10.924;2023-07-20T05:08:30;13.50;;;3.87;;
3133;SDS011;1577;49.912;10.924;2023-07-20T05:10:56;16.13;;;3.80;;
3133;SDS011;1577;49.912;10.924;2023-07-20T05:13:23;13.07;;;3.97;;
3133;SDS011;1577;49.912;10.924;2023-07-20T05:15:51;13.27;;;4.00;;
3133;SDS011;1577;49.912;10.924;2023-07-20T05:18:17;14.13;;;3.40;;
3133;SDS011;1577;49.912;10.924;2023-07-20T05:20:45;13.67;;;3.23;;
3133;SDS011;1577;49.912;10.924;2023-07-20T05:23:14;13.83;;;4.00;;
3133;SDS011;1577;49.912;10.924;2023-07-20T05:25:43;15.30;;;3.87;;
3133;SDS011;1577;49.912;10.924;2023-07-20T05:28:09;13.77;;;4.00;;
3133;SDS011;1577;49.912;10.924;2023-07-20T05:30:34;13.63;;;3.57;;
3133;SDS011;1577;49.912;10.924;2023-07-20T05:33:00;12.87;;;3.77;;
3133;SDS011;1577;49.912;10.924;2023-07-20T05:35:26;13.00;;;3.20;;
3133;SDS011;1577;49.912;10.924;2023-07-20T05:37:51;14.47;;;3.77;;
3133;SDS011;1577;49.912;10.924;2023-07-20T05:40:17;12.47;;;3.03;;
3133;SDS011;1577;49.912;10.924;2023-07-20T05:42:47;11.90;;;2.63;;
3133;SDS011;1577;49.912;10.924;2023-07-20T05:45:14;12.73;;;3.17;;
3133;SDS011;1577;49.912;10.924;2023-07-20T05:47:43;11.93;;;2.60;;
3133;SDS011;1577;49.912;10.924;2023-07-20T05:50:11;12.40;;;2.83;;
3133;SDS011;1577;49.912;10.924;2023-07-20T05:52:51;11.53;;;2.70;;
3133;SDS011;1577;49.912;10.924;2023-07-20T05:55:32;15.37;;;2.40;;
3133;SDS011;1577;49.912;10.924;2023-07-20T05:58:01;11.87;;;2.40;;
3133;SDS011;1577;49.912;10.924;2023-07-20T06:03:24;12.53;;;2.50;;
3133;SDS011;1577;49.912;10.924;2023-07-20T06:06:16;13.13;;;2.73;;
3133;SDS011;1577;49.912;10.924;2023-07-20T06:08:45;12.20;;;2.83;;
3133;SDS011;1577;49.912;10.924;2023-07-20T06:11:14;16.23;;;2.97;;
3133;SDS011;1577;49.912;10.924;2023-07-20T06:13:42;13.43;;;2.90;;
3133;SDS011;1577;49.912;10.924;2023-07-20T06:16:13;11.20;;;2.47;;
3133;SDS011;1577;49.912;10.924;2023-07-20T06:18:41;12.87;;;2.80;;
3133;SDS011;1577;49.912;10.924;2023-07-20T06:21:07;12.57;;;2.77;;
3133;SDS011;1577;49.912;10.924;2023-07-20T06:23:33;12.20;;;2.93;;
3133;SDS011;1577;49.912;10.924;2023-07-20T06:25:59;10.53;;;2.40;;
3133;SDS011;1577;49.912;10.924;2023-07-20T06:28:27;14.30;;;2.50;;
3133;SDS011;1577;49.912;10.924;2023-07-20T06:31:02;11.97;;;2.53;;
3133;SDS011;1577;49.912;10.924;2023-07-20T06:33:31;14.90;;;4.00;;
3133;SDS011;1577;49.912;10.924;2023-07-20T06:35:57;11.00;;;2.17;;
3133;SDS011;1577;49.912;10.924;2023-07-20T06:38:23;12.73;;;2.40;;
3133;SDS011;1577;49.912;10.924;2023-07-20T06:40:49;12.40;;;2.03;;
3133;SDS011;1577;49.912;10.924;2023-07-20T06:43:18;10.30;;;1.80;;
3133;SDS011;1577;49.912;10.924;2023-07-20T06:45:44;10.80;;;1.80;;
3133;SDS011;1577;49.912;10.924;2023-07-20T06:48:10;11.10;;;2.27;;
3133;SDS011;1577;49.912;10.924;2023-07-20T06:50:35;11.27;;;2.00;;
3133;SDS011;1577;49.912;10.924;2023-07-20T06:53:01;13.40;;;2.50;;
3133;SDS011;1577;49.912;10.924;2023-07-20T06:55:30;10.37;;;2.10;;
3133;SDS011;1577;49.912;10.924;2023-07-20T06:57:56;10.97;;;1.90;;
3133;SDS011;1577;49.912;10.924;2023-07-20T07:00:22;10.43;;;1.60;;
3133;SDS011;1577;49.912;10.924;2023-07-20T07:02:48;10.80;;;1.83;;
3133;SDS011;1577;49.912;10.924;2023-07-20T07:05:14;10.17;;;1.67;;
3133;SDS011;1577;49.912;10.924;2023-07-20T07:07:50;11.07;;;1.50;;
3133;SDS011;1577;49.912;10.924;2023-07-20T07:10:16;10.13;;;1.50;;
3133;SDS011;1577;49.912;10.924;2023-07-20T07:12:50;10.87;;;1.93;;
3133;SDS011;1577;49.912;10.924;2023-07-20T07:15:16;9.80;;;1.33;;
3133;SDS011;1577;49.912;10.924;2023-07-20T07:17:49;10.00;;;1.43;;
3133;SDS011;1577;49.912;10.924;2023-07-20T07:20:21;10.00;;;1.70;;
3133;SDS011;1577;49.912;10.924;2023-07-20T07:22:47;8.70;;;1.10;;
3133;SDS011;1577;49.912;10.924;2023-07-20T07:25:17;9.77;;;1.30;;
3133;SDS011;1577;49.912;10.924;2023-07-20T07:27:52;9.47;;;1.13;;
3133;SDS011;1577;49.912;10.924;2023-07-20T07:30:40;11.27;;;1.50;;
3133;SDS011;1577;49.912;10.924;2023-07-20T07:33:11;9.43;;;1.50;;
3133;SDS011;1577;49.912;10.924;2023-07-20T07:35:38;9.20;;;1.50;;
3133;SDS011;1577;49.912;10.924;2023-07-20T07:38:09;9.20;;;1.23;;
3133;SDS011;1577;49.912;10.924;2023-07-20T07:40:35;11.03;;;1.20;;
3133;SDS011;1577;49.912;10.924;2023-07-20T07:43:02;9.30;;;1.27;;
3133;SDS011;1577;49.912;10.924;2023-07-20T07:45:34;8.53;;;1.13;;
3133;SDS011;1577;49.912;10.924;2023-07-20T07:48:07;11.30;;;1.37;;
3133;SDS011;1577;49.912;10.924;2023-07-20T07:50:36;9.17;;;1.10;;
3133;SDS011;1577;49.912;10.924;2023-07-20T07:53:07;8.07;;;0.93;;
3133;SDS011;1577;49.912;10.924;2023-07-20T07:55:37;8.77;;;1.03;;
3133;SDS011;1577;49.912;10.924;2023-07-20T07:58:09;9.43;;;1.57;;
3133;SDS011;1577;49.912;10.924;2023-07-20T08:00:40;9.00;;;1.20;;
3133;SDS011;1577;49.912;10.924;2023-07-20T08:03:10;9.30;;;1.20;;
3133;SDS011;1577;49.912;10.924;2023-07-20T08:05:42;9.00;;;1.23;;
3133;SDS011;1577;49.912;10.924;2023-07-20T08:08:10;9.77;;;1.40;;
3133;SDS011;1577;49.912;10.924;2023-07-20T08:10:57;8.93;;;1.10;;
3133;SDS011;1577;49.912;10.924;2023-07-20T08:13:24;16.23;;;1.60;;
3133;SDS011;1577;49.912;10.924;2023-07-20T08:15:58;8.60;;;0.93;;
3133;SDS011;1577;49.912;10.924;2023-07-20T08:18:27;8.97;;;1.13;;
3133;SDS011;1577;49.912;10.924;2023-07-20T08:20:58;8.97;;;1.00;;
3133;SDS011;1577;49.912;10.924;2023-07-20T08:23:34;8.70;;;1.10;;
3133;SDS011;1577;49.912;10.924;2023-07-20T08:26:03;9.30;;;1.10;;
3133;SDS011;1577;49.912;10.924;2023-07-20T08:28:29;9.57;;;1.20;;
3133;SDS011;1577;49.912;10.924;2023-07-20T08:30:59;8.90;;;1.10;;
3133;SDS011;1577;49.912;10.924;2023-07-20T08:33:25;10.33;;;1.40;;
3133;SDS011;1577;49.912;10.924;2023-07-20T08:36:03;8.80;;;1.00;;
3133;SDS011;1577;49.912;10.924;2023-07-20T08:38:34;12.33;;;1.30;;
3133;SDS011;1577;49.912;10.924;2023-07-20T08:41:03;8.80;;;1.00;;
3133;SDS011;1577;49.912;10.924;2023-07-20T08:43:29;11.70;;;1.30;;
3133;SDS011;1577;49.912;10.924;2023-07-20T08:46:08;9.20;;;1.07;;
3133;SDS011;1577;49.912;10.924;2023-07-20T08:48:40;9.20;;;1.20;;
3133;SDS011;1577;49.912;10.924;2023-07-20T08:51:10;10.53;;;1.03;;
3133;SDS011;1577;49.912;10.924;2023-07-20T08:53:38;9.50;;;1.00;;
3133;SDS011;1577;49.912;10.924;2023-07-20T08:56:11;9.13;;;1.20;;
3133;SDS011;1577;49.912;10.924;2023-07-20T08:58:47;9.00;;;1.20;;
3133;SDS011;1577;49.912;10.924;2023-07-20T09:01:17;9.20;;;1.10;;
3133;SDS011;1577;49.912;10.924;2023-07-20T09:03:47;9.90;;;1.20;;
3133;SDS011;1577;49.912;10.924;2023-07-20T09:06:14;9.90;;;1.10;;
3133;SDS011;1577;49.912;10.924;2023-07-20T09:08:43;8.90;;;1.00;;
3133;SDS011;1577;49.912;10.924;2023-07-20T09:11:12;9.60;;;1.13;;
3133;SDS011;1577;49.912;10.924;2023-07-20T09:13:44;10.50;;;1.27;;
3133;SDS011;1577;49.912;10.924;2023-07-20T09:16:13;11.23;;;1.50;;
3133;SDS011;1577;49.912;10.924;2023-07-20T09:18:45;10.13;;;1.53;;
3133;SDS011;1577;49.912;10.924;2023-07-20T09:21:22;12.40;;;1.20;;
3133;SDS011;1577;49.912;10.924;2023-07-20T09:24:02;11.40;;;1.50;;
3133;SDS011;1577;49.912;10.924;2023-07-20T09:26:41;9.90;;;1.47;;
3133;SDS011;1577;49.912;10.924;2023-07-20T09:29:20;10.07;;;1.30;;
3133;SDS011;1577;49.912;10.924;2023-07-20T09:32:02;12.30;;;1.60;;
3133;SDS011;1577;49.912;10.924;2023-07-20T09:34:42;11.53;;;1.53;;
3133;SDS011;1577;49.912;10.924;2023-07-20T09:37:09;12.23;;;1.53;;
3133;SDS011;1577;49.912;10.924;2023-07-20T09:39:47;11.40;;;1.50;;
3133;SDS011;1577;49.912;10.924;2023-07-20T09:42:30;10.53;;;1.60;;
3133;SDS011;1577;49.912;10.924;2023-07-20T09:45:00;11.37;;;2.13;;
3133;SDS011;1577;49.912;10.924;2023-07-20T09:47:29;9.83;;;1.33;;
3133;SDS011;1577;49.912;10.924;2023-07-20T09:50:09;12.43;;;1.93;;
3133;SDS011;1577;49.912;10.924;2023-07-20T09:52:47;15.57;;;1.73;;
3133;SDS011;1577;49.912;10.924;2023-07-20T09:55:20;11.30;;;1.60;;
3133;SDS011;1577;49.912;10.924;2023-07-20T09:57:52;12.90;;;2.00;;
3133;SDS011;1577;49.912;10.924;2023-07-20T10:00:35;10.90;;;1.63;;
3133;SDS011;1577;49.912;10.924;2023-07-20T10:03:05;10.47;;;1.40;;
3133;SDS011;1577;49.912;10.924;2023-07-20T10:05:54;11.10;;;1.33;;
3133;SDS011;1577;49.912;10.924;2023-07-20T10:08:36;11.40;;;1.50;;
3133;SDS011;1577;49.912;10.924;2023-07-20T10:11:07;12.50;;;1.97;;
3133;SDS011;1577;49.912;10.924;2023-07-20T10:13:36;13.93;;;1.23;;
3133;SDS011;1577;49.912;10.924;2023-07-20T10:16:12;9.97;;;1.40;;
3133;SDS011;1577;49.912;10.924;2023-07-20T10:19:03;9.97;;;1.40;;
3133;SDS011;1577;49.912;10.924;2023-07-20T10:21:40;11.37;;;1.30;;
3133;SDS011;1577;49.912;10.924;2023-07-20T10:24:07;13.13;;;1.70;;
3133;SDS011;1577;49.912;10.924;2023-07-20T10:26:34;9.90;;;1.27;;
3133;SDS011;1577;49.912;10.924;2023-07-20T10:29:00;10.00;;;1.33;;
3133;SDS011;1577;49.912;10.924;2023-07-20T10:31:26;13.30;;;1.50;;
3133;SDS011;1577;49.912;10.924;2023-07-20T10:33:54;12.27;;;1.80;;
3133;SDS011;1577;49.912;10.924;2023-07-20T10:36:25;9.60;;;1.30;;
3133;SDS011;1577;49.912;10.924;2023-07-20T10:38:54;10.90;;;1.20;;
3133;SDS011;1577;49.912;10.924;2023-07-20T10:44:01;11.60;;;1.60;;
3133;SDS011;1577;49.912;10.924;2023-07-20T10:49:03;10.33;;;1.20;;
3133;SDS011;1577;49.912;10.924;2023-07-20T10:51:30;11.33;;;1.30;;
3133;SDS011;1577;49.912;10.924;2023-07-20T10:56:42;10.17;;;1.47;;
3133;SDS011;1577;49.912;10.924;2023-07-20T11:01:48;11.90;;;1.70;;
3133;SDS011;1577;49.912;10.924;2023-07-20T11:04:14;11.00;;;1.30;;
3133;SDS011;1577;49.912;10.924;2023-07-20T11:06:45;9.80;;;1.00;;
3133;SDS011;1577;49.912;10.924;2023-07-20T11:09:12;10.27;;;1.33;;
3133;SDS011;1577;49.912;10.924;2023-07-20T11:11:41;10.87;;;1.10;;
3133;SDS011;1577;49.912;10.924;2023-07-20T11:14:10;9.63;;;1.40;;
3133;SDS011;1577;49.912;10.924;2023-07-20T11:16:45;10.60;;;1.20;;
3133;SDS011;1577;49.912;10.924;2023-07-20T11:21:45;11.07;;;1.50;;
3133;SDS011;1577;49.912;10.924;2023-07-20T11:24:12;9.87;;;1.40;;
3133;SDS011;1577;49.912;10.924;2023-07-20T11:29:11;10.70;;;1.47;;
3133;SDS011;1577;49.912;10.924;2023-07-20T11:31:38;12.77;;;1.30;;
3133;SDS011;1577;49.912;10.924;2023-07-20T11:34:05;11.03;;;1.37;;
3133;SDS011;1577;49.912;10.924;2023-07-20T11:36:33;10.00;;;1.20;;
3133;SDS011;1577;49.912;10.924;2023-07-20T11:38:58;11.23;;;1.33;;
3133;SDS011;1577;49.912;10.924;2023-07-20T11:41:25;10.70;;;1.37;;
3133;SDS011;1577;49.912;10.924;2023-07-20T11:43:51;9.80;;;1.30;;
3133;SDS011;1577;49.912;10.924;2023-07-20T11:46:18;10.70;;;1.60;;
3133;SDS011;1577;49.912;10.924;2023-07-20T11:48:44;13.87;;;1.37;;
3133;SDS011;1577;49.912;10.924;2023-07-20T11:51:13;10.33;;;1.60;;
3133;SDS011;1577;49.912;10.924;2023-07-20T11:53:43;9.57;;;1.40;;
3133;SDS011;1577;49.912;10.924;2023-07-20T11:56:11;10.40;;;1.40;;
3133;SDS011;1577;49.912;10.924;2023-07-20T11:58:41;10.73;;;1.60;;
3133;SDS011;1577;49.912;10.924;2023-07-20T12:01:07;10.57;;;1.30;;
3133;SDS011;1577;49.912;10.924;2023-07-20T12:03:33;9.50;;;1.20;;
3133;SDS011;1577;49.912;10.924;2023-07-20T12:06:09;11.60;;;1.87;;
3133;SDS011;1577;49.912;10.924;2023-07-20T12:08:38;11.03;;;1.73;;
3133;SDS011;1577;49.912;10.924;2023-07-20T12:11:05;9.73;;;1.20;;
3133;SDS011;1577;49.912;10.924;2023-07-20T12:13:50;11.90;;;1.47;;
3133;SDS011;1577;49.912;10.924;2023-07-20T12:16:15;9.63;;;1.20;;
3133;SDS011;1577;49.912;10.924;2023-07-20T12:18:44;12.53;;;1.73;;
3133;SDS011;1577;49.912;10.924;2023-07-20T12:21:10;12.10;;;2.30;;
3133;SDS011;1577;49.912;10.924;2023-07-20T12:23:39;11.40;;;1.60;;
3133;SDS011;1577;49.912;10.924;2023-07-20T12:26:09;10.10;;;1.30;;
3133;SDS011;1577;49.912;10.924;2023-07-20T12:28:38;10.00;;;1.10;;
3133;SDS011;1577;49.912;10.924;2023-07-20T12:31:05;10.17;;;1.23;;
3133;SDS011;1577;49.912;10.924;2023-07-20T12:33:31;9.97;;;1.30;;
3133;SDS011;1577;49.912;10.924;2023-07-20T12:35:57;12.10;;;1.60;;
3133;SDS011;1577;49.912;10.924;2023-07-20T12:38:24;10.53;;;1.00;;
3133;SDS011;1577;49.912;10.924;2023-07-20T12:40:50;10.90;;;0.97;;
3133;SDS011;1577;49.912;10.924;2023-07-20T12:43:16;9.90;;;1.03;;
3133;SDS011;1577;49.912;10.924;2023-07-20T12:45:42;9.97;;;1.10;;
3133;SDS011;1577;49.912;10.924;2023-07-20T12:48:08;10.60;;;1.17;;
3133;SDS011;1577;49.912;10.924;2023-07-20T12:50:34;9.57;;;1.10;;
3133;SDS011;1577;49.912;10.924;2023-07-20T12:52:59;10.70;;;1.10;;
3133;SDS011;1577;49.912;10.924;2023-07-20T12:55:25;10.70;;;1.17;;
3133;SDS011;1577;49.912;10.924;2023-07-20T12:57:50;9.80;;;1.30;;
3133;SDS011;1577;49.912;10.924;2023-07-20T13:00:16;9.63;;;1.23;;
3133;SDS011;1577;49.912;10.924;2023-07-20T13:02:42;10.80;;;1.20;;
3133;SDS011;1577;49.912;10.924;2023-07-20T13:05:08;9.90;;;1.30;;
3133;SDS011;1577;49.912;10.924;2023-07-20T13:07:35;9.90;;;1.30;;
3133;SDS011;1577;49.912;10.924;2023-07-20T13:10:02;10.30;;;1.20;;
3133;SDS011;1577;49.912;10.924;2023-07-20T13:12:29;10.53;;;1.00;;
3133;SDS011;1577;49.912;10.924;2023-07-20T13:14:55;9.40;;;1.03;;
3133;SDS011;1577;49.912;10.924;2023-07-20T13:17:22;11.97;;;1.03;;
3133;SDS011;1577;49.912;10.924;2023-07-20T13:19:47;12.23;;;1.00;;
3133;SDS011;1577;49.912;10.924;2023-07-20T13:22:13;10.33;;;1.20;;
3133;SDS011;1577;49.912;10.924;2023-07-20T13:24:39;10.00;;;1.40;;
3133;SDS011;1577;49.912;10.924;2023-07-20T13:27:05;10.27;;;1.23;;
3133;SDS011;1577;49.912;10.924;2023-07-20T13:29:31;10.83;;;1.40;;
3133;SDS011;1577;49.912;10.924;2023-07-20T13:31:57;13.07;;;1.00;;
3133;SDS011;1577;49.912;10.924;2023-07-20T13:34:23;9.70;;;0.97;;
3133;SDS011;1577;49.912;10.924;2023-07-20T13:36:50;9.20;;;1.27;;
3133;SDS011;1577;49.912;10.924;2023-07-20T13:39:15;10.63;;;1.20;;
3133;SDS011;1577;49.912;10.924;2023-07-20T13:41:41;9.20;;;0.97;;
3133;SDS011;1577;49.912;10.924;2023-07-20T13:44:07;10.77;;;1.27;;
3133;SDS011;1577;49.912;10.924;2023-07-20T13:46:33;10.77;;;1.40;;
3133;SDS011;1577;49.912;10.924;2023-07-20T13:48:59;9.70;;;1.20;;
3133;SDS011;1577;49.912;10.924;2023-07-20T13:51:25;9.20;;;0.93;;
3133;SDS011;1577;49.912;10.924;2023-07-20T13:53:51;10.00;;;1.00;;
3133;SDS011;1577;49.912;10.924;2023-07-20T13:56:17;9.13;;;0.97;;
3133;SDS011;1577;49.912;10.924;2023-07-20T13:58:42;9.57;;;1.17;;
3133;SDS011;1577;49.912;10.924;2023-07-20T14:01:08;9.70;;;1.20;;
3133;SDS011;1577;49.912;10.924;2023-07-20T14:03:33;12.53;;;1.27;;
3133;SDS011;1577;49.912;10.924;2023-07-20T14:05:59;11.37;;;1.40;;
3133;SDS011;1577;49.912;10.924;2023-07-20T14:08:24;10.17;;;1.30;;
3133;SDS011;1577;49.912;10.924;2023-07-20T14:10:50;10.40;;;1.30;;
3133;SDS011;1577;49.912;10.924;2023-07-20T14:13:16;12.10;;;1.30;;
3133;SDS011;1577;49.912;10.924;2023-07-20T14:15:41;9.47;;;1.03;;
3133;SDS011;1577;49.912;10.924;2023-07-20T14:18:07;9.57;;;1.27;;
3133;SDS011;1577;49.912;10.924;2023-07-20T14:20:32;11.23;;;1.30;;
3133;SDS011;1577;49.912;10.924;2023-07-20T14:22:58;9.87;;;1.40;;
3133;SDS011;1577;49.912;10.924;2023-07-20T14:25:24;11.33;;;1.40;;
3133;SDS011;1577;49.912;10.924;2023-07-20T14:27:50;10.00;;;1.20;;
3133;SDS011;1577;49.912;10.924;2023-07-20T14:30:15;10.10;;;1.40;;
3133;SDS011;1577;49.912;10.924;2023-07-20T14:32:41;9.57;;;1.20;;
3133;SDS011;1577;49.912;10.924;2023-07-20T14:35:07;9.87;;;1.40;;
3133;SDS011;1577;49.912;10.924;2023-07-20T14:37:34;9.60;;;1.27;;
3133;SDS011;1577;49.912;10.924;2023-07-20T14:39:59;10.07;;;1.53;;
3133;SDS011;1577;49.912;10.924;2023-07-20T14:42:25;9.63;;;1.33;;
3133;SDS011;1577;49.912;10.924;2023-07-20T14:44:51;10.83;;;1.33;;
3133;SDS011;1577;49.912;10.924;2023-07-20T14:47:16;9.20;;;1.20;;
3133;SDS011;1577;49.912;10.924;2023-07-20T14:49:42;9.97;;;1.10;;
3133;SDS011;1577;49.912;10.924;2023-07-20T14:52:09;10.80;;;1.60;;
3133;SDS011;1577;49.912;10.924;2023-07-20T14:54:35;9.53;;;1.20;;
3133;SDS011;1577;49.912;10.924;2023-07-20T14:57:00;9.60;;;1.10;;
3133;SDS011;1577;49.912;10.924;2023-07-20T14:59:26;9.70;;;1.10;;
3133;SDS011;1577;49.912;10.924;2023-07-20T15:01:51;9.37;;;1.20;;
3133;SDS011;1577;49.912;10.924;2023-07-20T15:04:18;9.63;;;1.23;;
3133;SDS011;1577;49.912;10.924;2023-07-20T15:06:43;9.80;;;1.40;;
3133;SDS011;1577;49.912;10.924;2023-07-20T15:09:09;9.60;;;1.37;;
3133;SDS011;1577;49.912;10.924;2023-07-20T15:11:35;11.13;;;1.47;;
3133;SDS011;1577;49.912;10.924;2023-07-20T15:14:02;12.17;;;1.37;;
3133;SDS011;1577;49.912;10.924;2023-07-20T15:16:27;9.90;;;1.30;;
3133;SDS011;1577;49.912;10.924;2023-07-20T15:18:53;9.90;;;1.37;;
3133;SDS011;1577;49.912;10.924;2023-07-20T15:21:18;9.73;;;1.40;;
3133;SDS011;1577;49.912;10.924;2023-07-20T15:23:44;10.50;;;1.30;;
3133;SDS011;1577;49.912;10.924;2023-07-20T15:26:10;9.90;;;1.30;;